Laverlochere, Canada
Current Conditions -  °F | °C
As of 5:09 AM on Saturday 29 Nov 2014 (Local Time) from CYXR Reporting Station
Broken Clouds Broken Clouds  
Wind Chill:   Ceiling: 2100
Heat Index:   Visibility: 9mi
Dew Point: -4°   Wind: 2mph
Humidity: 85%   Direction: 110°ESE
Pressure: 30.06"   Gusts: NA
Location:  47.42°N, 79.28°W
Report Text: CYXR 291009Z AUTO 11002KT 9SM BKN021 M18/M20 A3006 RMK ICG SLP205
Loading
Personal Weather Stations






























Interactive Weather Map New forecast layout! Learn more

10-Day Weather Forecast

Advertisements
Track Severe Weather on mobile